Time;durP1;ratioP1;P1;durP2;ratioP2;P2;SDS_P1;SDS_P2;PMS_P1;PMS_P2;Temp;Humidity;BMP_temperature;BMP_pressure;BME280_temperature;BME280_humidity;BME280_pressure;Samples;Min_cycle;Max_cycle;Signal;HPM_P1;HPM_P2
2022/05/25 00:02:17;;;;;;;13.88;7.40;;;;;;;20.56;58.49;95104.31;4920516;29;20042;-82
2022/05/25 00:04:43;;;;;;;16.13;6.85;;;;;;;20.44;58.80;95101.63;4937695;29;20481;-82
2022/05/25 00:07:10;;;;;;;12.77;6.63;;;;;;;20.53;58.37;95104.19;4937454;29;20043;-82
2022/05/25 00:09:35;;;;;;;14.32;6.95;;;;;;;19.82;58.65;94995.03;4920151;29;20087;-83
2022/05/25 00:12:01;;;;;;;15.30;7.05;;;;;;;20.03;58.39;95014.53;4937192;29;20044;-82
2022/05/25 00:14:27;;;;;;;18.48;7.57;;;;;;;20.19;58.24;95038.88;4920256;29;20054;-82
2022/05/25 00:16:52;;;;;;;12.27;7.00;;;;;;;20.57;58.38;95108.56;4920170;29;20491;-82
2022/05/25 00:22:02;;;;;;;11.30;6.85;;;;;;;20.16;58.19;95046.81;4936696;29;20415;-82
2022/05/25 00:24:27;;;;;;;11.52;6.47;;;;;;;20.06;58.78;95045.38;4919645;29;20118;-82
2022/05/25 00:26:53;;;;;;;13.15;7.07;;;;;;;19.74;58.34;94987.06;4919561;29;20073;-83
2022/05/25 00:29:18;;;;;;;11.82;7.53;;;;;;;19.86;58.42;94993.22;4919916;29;20028;-82
2022/05/25 00:31:43;;;;;;;14.18;7.00;;;;;;;19.92;58.51;95001.84;4936126;29;20102;-82
2022/05/25 00:34:09;;;;;;;12.10;7.53;;;;;;;19.80;59.06;95015.31;4937009;29;20110;-82
2022/05/25 00:36:34;;;;;;;9.98;7.38;;;;;;;19.72;59.33;95026.94;4937049;29;20040;-81
2022/05/25 00:39:00;;;;;;;9.82;6.75;;;;;;;19.95;59.29;95050.41;4919701;29;20123;-82
2022/05/25 00:41:30;;;;;;;13.80;6.70;;;;;;;20.34;59.17;95096.69;4919666;29;20490;-82
2022/05/25 00:43:56;;;;;;;12.77;7.25;;;;;;;20.25;59.24;95082.50;4936877;29;20514;-82
2022/05/25 00:46:23;;;;;;;9.20;6.68;;;;;;;20.15;59.14;95053.31;4919439;29;20433;-82
2022/05/25 00:48:56;;;;;;;15.05;6.95;;;;;;;20.06;59.56;95071.53;4936760;29;20039;-82
2022/05/25 00:51:27;;;;;;;16.75;7.63;;;;;;;19.59;59.44;94991.97;4936551;29;20040;-81
2022/05/25 00:54:00;;;;;;;15.05;6.78;;;;;;;19.93;59.23;95041.09;4936842;28;20042;-81
2022/05/25 00:56:29;;;;;;;12.57;6.78;;;;;;;20.27;59.50;95101.81;4936448;29;20548;-81
2022/05/25 00:59:07;;;;;;;14.60;7.18;;;;;;;19.54;60.06;95034.41;4936068;29;20142;-82
2022/05/25 01:01:32;;;;;;;15.63;7.03;;;;;;;19.41;60.76;95038.19;4919816;29;20513;-81
2022/05/25 01:03:58;;;;;;;16.42;7.15;;;;;;;19.98;60.17;95102.81;4937433;29;20043;-81
2022/05/25 01:06:46;;;;;;;17.88;6.70;;;;;;;19.94;60.40;95105.38;4939752;29;20036;-82
2022/05/25 01:09:39;;;;;;;11.60;7.25;;;;;;;19.85;60.70;95103.88;4937280;29;20036;-82
2022/05/25 01:12:22;;;;;;;13.80;7.30;;;;;;;19.86;60.73;95105.44;4937307;29;20036;-82
2022/05/25 01:15:13;;;;;;;8.82;6.35;;;;;;;19.84;60.65;95110.38;4919341;29;20040;-81
2022/05/25 01:17:53;;;;;;;11.68;7.05;;;;;;;19.87;60.66;95110.50;4936151;29;20031;-82
2022/05/25 01:20:46;;;;;;;12.32;7.63;;;;;;;19.81;60.75;95111.06;4918763;29;20044;-82
2022/05/25 01:23:33;;;;;;;14.95;7.53;;;;;;;19.84;60.62;95113.06;4918770;29;20091;-82
2022/05/25 01:26:26;;;;;;;9.80;7.38;;;;;;;19.90;60.35;95119.84;4936295;29;20032;-82
2022/05/25 01:29:23;;;;;;;11.10;7.18;;;;;;;19.88;60.44;95124.75;4919143;29;20091;-81
2022/05/25 01:31:48;;;;;;;11.70;7.15;;;;;;;19.76;60.62;95122.81;4918589;29;20549;-81
2022/05/25 01:34:49;;;;;;;10.98;6.97;;;;;;;19.22;61.13;95066.34;4935335;29;20043;-82
2022/05/25 01:37:23;;;;;;;13.35;6.93;;;;;;;19.08;60.96;95051.59;4935223;29;20048;-82
2022/05/25 01:39:58;;;;;;;16.17;6.97;;;;;;;19.55;61.02;95104.03;4918606;29;20099;-81
2022/05/25 01:42:40;;;;;;;16.52;7.30;;;;;;;19.41;60.95;95079.31;4935657;29;20126;-82
2022/05/25 01:45:09;;;;;;;10.63;7.75;;;;;;;19.14;60.88;95036.88;4918343;29;20039;-82
2022/05/25 01:47:37;;;;;;;12.98;7.82;;;;;;;19.52;61.03;95106.63;4936627;29;20040;-81
2022/05/25 01:50:25;;;;;;;14.82;7.88;;;;;;;19.61;60.73;95112.66;4919199;29;20042;-81
2022/05/25 01:52:59;;;;;;;18.52;8.23;;;;;;;19.71;60.72;95125.72;4936102;29;20047;-81
2022/05/25 01:55:57;;;;;;;9.80;7.45;;;;;;;19.59;61.36;95123.78;4917856;29;20134;-81
2022/05/25 01:58:24;;;;;;;10.82;7.00;;;;;;;19.19;60.89;95058.16;4910052;29;20163;-82
2022/05/25 02:00:55;;;;;;;14.02;7.75;;;;;;;19.32;60.76;95077.81;4935217;29;20094;-82
2022/05/25 02:06:42;;;;;;;13.85;7.70;;;;;;;19.61;60.85;95139.56;4935114;29;20043;-81
2022/05/25 02:09:35;;;;;;;12.82;7.03;;;;;;;19.55;61.08;95140.91;4917746;29;20430;-82
2022/05/25 02:12:25;;;;;;;14.50;7.63;;;;;;;19.57;61.05;95144.84;4917670;29;20043;-82
2022/05/25 02:15:06;;;;;;;19.25;8.10;;;;;;;19.57;61.06;95147.53;4934567;29;20071;-82
2022/05/25 02:17:41;;;;;;;17.35;8.50;;;;;;;18.21;62.01;95003.13;4917339;28;20090;-81
2022/05/25 02:20:15;;;;;;;13.48;7.78;;;;;;;19.03;61.78;95106.38;4934746;29;20509;-82
2022/05/25 02:22:48;;;;;;;12.63;8.30;;;;;;;19.23;61.93;95153.94;4934186;29;20125;-82
2022/05/25 02:25:29;;;;;;;17.88;7.60;;;;;;;19.22;62.35;95157.75;4936908;29;20066;-81
2022/05/25 02:28:05;;;;;;;11.63;7.68;;;;;;;18.97;61.73;95099.63;4938472;29;20471;-82
2022/05/25 02:30:36;;;;;;;12.35;7.65;;;;;;;18.69;61.73;95069.78;4917609;29;20098;-82
2022/05/25 02:33:09;;;;;;;19.27;8.38;;;;;;;19.40;61.49;95171.84;4918317;29;20036;-81
2022/05/25 02:35:39;;;;;;;19.33;8.65;;;;;;;19.41;61.51;95173.44;4917568;29;20059;-81
2022/05/25 02:38:06;;;;;;;15.40;9.00;;;;;;;19.33;61.65;95173.50;4917480;29;20122;-82
2022/05/25 02:40:37;;;;;;;17.75;8.07;;;;;;;19.38;61.56;95175.97;4917278;29;20031;-81
2022/05/25 02:43:04;;;;;;;17.17;8.85;;;;;;;18.48;61.40;95045.56;4934823;29;20035;-82
2022/05/25 02:45:30;;;;;;;17.02;8.50;;;;;;;18.36;61.42;95029.38;4917418;29;20138;-82
2022/05/25 02:47:55;;;;;;;18.67;9.20;;;;;;;19.02;61.94;95163.13;4917536;29;20101;-82
2022/05/25 02:50:21;;;;;;;15.88;7.95;;;;;;;18.58;62.26;95100.03;4934324;29;20039;-82
2022/05/25 02:52:46;;;;;;;17.10;8.27;;;;;;;18.62;62.32;95123.22;4934296;29;20036;-81
2022/05/25 02:55:13;;;;;;;15.55;8.18;;;;;;;18.21;62.14;95042.59;4917392;29;20071;-82
2022/05/25 02:57:39;;;;;;;15.02;8.38;;;;;;;18.96;62.21;95172.50;4934717;29;20028;-81
2022/05/25 03:00:05;;;;;;;20.98;8.73;;;;;;;18.62;61.83;95115.16;4934076;29;20051;-82
2022/05/25 03:02:30;;;;;;;11.23;8.60;;;;;;;18.71;61.80;95132.03;4917288;29;20028;-82
2022/05/25 03:04:56;;;;;;;17.88;8.75;;;;;;;18.62;61.81;95115.16;4934558;29;20123;-82
2022/05/25 03:07:21;;;;;;;21.52;9.20;;;;;;;19.05;62.03;95182.09;4934050;29;20035;-82
2022/05/25 03:09:47;;;;;;;18.40;8.73;;;;;;;18.35;61.63;95075.34;4917192;29;20162;-82
2022/05/25 03:12:13;;;;;;;18.83;9.02;;;;;;;18.74;61.80;95139.44;4934547;29;20086;-81
2022/05/25 03:14:39;;;;;;;16.67;8.35;;;;;;;18.58;62.12;95134.97;4917459;29;20046;-82
2022/05/25 03:17:09;;;;;;;25.48;9.02;;;;;;;18.75;62.22;95170.56;4934224;29;20032;-82
2022/05/25 03:19:36;;;;;;;13.13;8.30;;;;;;;18.46;62.48;95132.94;4917622;29;20046;-82
2022/05/25 03:22:02;;;;;;;17.25;8.75;;;;;;;18.36;62.32;95118.00;4917429;29;20043;-82
2022/05/25 03:24:28;;;;;;;15.32;8.77;;;;;;;18.97;62.62;95212.50;4934125;29;20069;-82
2022/05/25 03:26:53;;;;;;;19.55;9.73;;;;;;;18.98;62.44;95221.34;4917190;29;20043;-81
2022/05/25 03:29:20;;;;;;;20.05;8.82;;;;;;;18.76;62.35;95184.78;4916772;29;20032;-82
2022/05/25 03:31:46;;;;;;;21.60;9.68;;;;;;;19.06;62.29;95218.59;4917089;29;20051;-82
2022/05/25 03:34:11;;;;;;;16.05;9.02;;;;;;;18.29;62.60;95108.88;4917078;29;20027;-82
2022/05/25 03:36:37;;;;;;;18.83;9.18;;;;;;;18.64;62.38;95166.69;4916986;29;20071;-81
2022/05/25 03:39:02;;;;;;;11.20;8.63;;;;;;;18.98;62.64;95229.41;4917154;29;20407;-80
2022/05/25 03:41:28;;;;;;;14.48;8.70;;;;;;;18.58;62.38;95164.50;4916568;29;20031;-81
2022/05/25 03:43:53;;;;;;;14.77;9.40;;;;;;;18.28;63.02;95148.34;4934283;29;20384;-82
2022/05/25 03:46:19;;;;;;;12.60;8.95;;;;;;;18.69;62.39;95197.94;4934094;29;20111;-81
2022/05/25 03:48:44;;;;;;;14.57;9.40;;;;;;;18.60;62.19;95173.81;4934159;29;20032;-82
2022/05/25 03:51:10;;;;;;;12.95;9.18;;;;;;;18.54;62.56;95187.72;4934378;29;20541;-81
2022/05/25 03:53:36;;;;;;;17.25;9.40;;;;;;;18.57;62.53;95177.13;4934450;29;20131;-81
2022/05/25 03:56:01;;;;;;;14.73;8.93;;;;;;;18.84;62.10;95211.59;4917811;29;20054;-82
2022/05/25 03:58:27;;;;;;;22.00;11.32;;;;;;;18.38;62.05;95150.69;4920193;29;20091;-81
2022/05/25 04:00:52;;;;;;;18.52;10.57;;;;;;;18.64;62.13;95196.22;4938084;29;20039;-82
2022/05/25 04:03:17;;;;;;;21.63;10.65;;;;;;;18.65;62.06;95205.84;4920554;29;20035;-81
2022/05/25 04:05:44;;;;;;;16.80;9.50;;;;;;;18.93;62.65;95257.22;4920173;29;20035;-82
2022/05/25 04:08:10;;;;;;;16.58;10.13;;;;;;;18.91;61.78;95221.06;4920640;29;20236;-81
2022/05/25 04:10:35;;;;;;;17.17;10.15;;;;;;;18.64;62.46;95195.44;4937682;29;20020;-82
2022/05/25 04:13:01;;;;;;;13.48;9.35;;;;;;;19.17;61.76;95262.00;4937281;29;20046;-81
2022/05/25 04:15:29;;;;;;;22.55;9.50;;;;;;;18.84;61.75;95230.41;4919574;29;20047;-82
2022/05/25 04:17:55;;;;;;;14.18;10.13;;;;;;;19.00;62.33;95262.88;4919896;29;20043;-82
2022/05/25 04:20:22;;;;;;;15.80;9.57;;;;;;;18.74;61.98;95200.44;4937298;29;20040;-82
2022/05/25 04:22:48;;;;;;;18.10;10.43;;;;;;;18.52;61.69;95155.81;4937209;29;20059;-81
2022/05/25 04:25:16;;;;;;;12.52;10.10;;;;;;;19.05;62.30;95249.28;4920150;29;20494;-82
2022/05/25 04:27:43;;;;;;;20.15;9.82;;;;;;;19.02;62.44;95255.28;4936685;29;20090;-82
2022/05/25 04:30:13;;;;;;;19.02;10.57;;;;;;;18.93;62.29;95226.88;4919758;29;20032;-82
2022/05/25 04:32:39;;;;;;;17.10;10.50;;;;;;;18.68;62.33;95197.16;4937071;29;20039;-81
2022/05/25 04:35:05;;;;;;;19.52;12.02;;;;;;;18.65;62.73;95202.38;4919571;29;20032;-81
2022/05/25 04:37:48;;;;;;;18.85;11.48;;;;;;;18.91;62.35;95237.97;4919839;29;20118;-82
2022/05/25 04:40:16;;;;;;;19.58;11.50;;;;;;;19.21;61.91;95262.94;4919715;29;20520;-81
2022/05/25 04:42:43;;;;;;;22.52;11.20;;;;;;;18.75;62.58;95205.50;4937039;29;20039;-82
2022/05/25 04:45:09;;;;;;;19.15;12.10;;;;;;;19.22;62.10;95259.91;4936907;29;20494;-81
2022/05/25 04:47:37;;;;;;;23.30;13.00;;;;;;;19.13;62.46;95263.78;4936568;29;20031;-81
2022/05/25 04:50:06;;;;;;;19.77;12.40;;;;;;;18.89;62.09;95205.25;4903836;29;20038;-81
2022/05/25 04:52:33;;;;;;;24.48;14.18;;;;;;;18.59;61.95;95156.13;4914805;29;20032;-82
2022/05/25 04:54:58;;;;;;;20.17;14.50;;;;;;;19.42;61.53;95261.06;4927081;29;20507;-82
2022/05/25 04:57:24;;;;;;;27.98;15.40;;;;;;;19.02;61.24;95204.22;4917664;29;20031;-82
2022/05/25 04:59:55;;;;;;;21.73;14.73;;;;;;;19.13;61.02;95202.75;4928610;29;20052;-81
2022/05/25 05:02:21;;;;;;;25.98;15.55;;;;;;;18.87;60.87;95159.13;4915214;29;20565;-81
2022/05/25 05:04:47;;;;;;;27.75;15.15;;;;;;;19.57;60.88;95263.19;4953930;29;20062;-82
2022/05/25 05:07:14;;;;;;;25.75;14.70;;;;;;;19.60;60.73;95256.38;4928484;29;20122;-82
2022/05/25 05:09:42;;;;;;;22.80;13.70;;;;;;;19.65;60.83;95266.94;4946343;29;20058;-82
2022/05/25 05:12:08;;;;;;;29.58;13.85;;;;;;;18.96;61.04;95164.44;4936108;29;20043;-82
2022/05/25 05:14:34;;;;;;;24.90;13.20;;;;;;;19.63;60.30;95264.56;4924842;29;20032;-82
2022/05/25 05:17:02;;;;;;;28.17;14.50;;;;;;;19.43;60.22;95216.13;4913774;29;20122;-82
2022/05/25 05:19:28;;;;;;;28.60;13.15;;;;;;;18.83;61.03;95156.31;4934757;29;20558;-83
2022/05/25 05:21:55;;;;;;;21.98;13.52;;;;;;;19.28;60.40;95212.13;4935339;29;20095;-83
2022/05/25 05:24:21;;;;;;;25.00;13.70;;;;;;;19.32;60.46;95221.09;4951465;29;20050;-82
2022/05/25 05:26:47;;;;;;;24.65;13.10;;;;;;;19.72;60.08;95266.41;4931583;29;20043;-82
2022/05/25 05:29:13;;;;;;;25.35;14.07;;;;;;;19.89;59.94;95282.44;4910996;29;20062;-82
2022/05/25 05:31:38;;;;;;;24.88;14.38;;;;;;;19.14;59.64;95150.56;4923559;29;20514;-82
2022/05/25 05:34:04;;;;;;;26.50;13.93;;;;;;;19.97;60.14;95279.66;4926577;29;20558;-82
2022/05/25 05:36:36;;;;;;;30.15;14.63;;;;;;;19.35;60.89;95209.72;4931227;29;20115;-81
2022/05/25 05:39:05;;;;;;;;;;;;;;;19.93;60.24;95292.19;4918811;29;20439;-81
2022/05/25 05:41:47;;;;;;;27.70;14.65;;;;;;;19.30;59.72;95177.63;4919276;29;19918;-83
2022/05/25 05:44:16;;;;;;;23.33;14.32;;;;;;;19.37;60.05;95206.69;4923639;29;20039;-82
2022/05/25 05:46:43;;;;;;;24.85;14.90;;;;;;;19.67;59.98;95253.16;4938652;29;20047;-82
2022/05/25 05:49:11;;;;;;;32.10;15.65;;;;;;;19.54;61.18;95287.25;4913903;29;20047;-83
2022/05/25 05:51:38;;;;;;;30.63;15.93;;;;;;;19.17;60.86;95227.06;4928754;29;20114;-81
2022/05/25 05:54:04;;;;;;;32.33;15.52;;;;;;;19.37;61.05;95234.38;4927189;29;20283;-82
2022/05/25 05:56:32;;;;;;;24.50;15.90;;;;;;;19.17;61.14;95198.28;4936644;29;20067;-82
2022/05/25 05:58:59;;;;;;;26.00;16.35;;;;;;;18.92;61.55;95201.91;4919447;29;20055;-83
2022/05/25 06:01:24;;;;;;;27.70;15.95;;;;;;;19.77;61.27;95293.13;4919116;29;20594;-81
2022/05/25 06:03:49;;;;;;;24.75;15.77;;;;;;;19.15;61.49;95205.09;4930134;29;20035;-82
2022/05/25 06:06:15;;;;;;;27.33;14.57;;;;;;;19.79;61.46;95286.28;4913102;29;20110;-82
2022/05/25 06:08:42;;;;;;;23.80;13.90;;;;;;;19.93;60.93;95299.47;4934411;29;20320;-82
2022/05/25 06:11:08;;;;;;;20.08;14.70;;;;;;;19.93;60.85;95305.66;4910178;29;20036;-81
2022/05/25 06:13:33;;;;;;;23.95;15.43;;;;;;;19.99;60.20;95269.34;4915882;29;20139;-82
2022/05/25 06:21:27;;;;;;;24.95;14.70;;;;;;;19.99;59.81;95255.09;4936369;29;20121;-82
2022/05/25 06:23:53;;;;;;;26.08;14.52;;;;;;;19.74;60.75;95219.25;4914877;29;20083;-83
2022/05/25 06:26:19;;;;;;;20.10;13.25;;;;;;;20.29;60.69;95288.84;4926922;29;20034;-82
2022/05/25 06:28:45;;;;;;;25.83;14.38;;;;;;;20.06;60.19;95273.41;4929506;29;20061;-81
2022/05/25 06:31:11;;;;;;;29.50;13.77;;;;;;;20.51;59.84;95320.06;4910789;29;20223;-82
2022/05/25 06:33:38;;;;;;;21.08;13.65;;;;;;;20.44;59.63;95297.47;4932497;29;20449;-82
2022/05/25 06:36:16;;;;;;;25.08;13.45;;;;;;;20.76;59.17;95315.50;4921138;29;20028;-82
2022/05/25 06:38:41;;;;;;;23.60;13.70;;;;;;;20.34;59.15;95245.59;4942918;29;20046;-82
2022/05/25 06:41:07;;;;;;;22.98;13.70;;;;;;;20.74;59.33;95296.19;4927794;29;20119;-83
2022/05/25 06:43:32;;;;;;;26.13;14.13;;;;;;;20.50;59.68;95259.22;4909708;29;20032;-82
2022/05/25 06:45:58;;;;;;;16.95;12.27;;;;;;;20.70;59.62;95290.66;4928675;29;20035;-82
2022/05/25 06:48:23;;;;;;;24.75;14.23;;;;;;;20.12;59.27;95227.09;4929064;29;20137;-81
2022/05/25 06:50:49;;;;;;;24.55;13.50;;;;;;;20.45;58.93;95254.03;4910150;29;20028;-83
2022/05/25 06:53:14;;;;;;;19.77;13.90;;;;;;;20.49;58.55;95268.41;4928516;29;20027;-82
2022/05/25 06:55:40;;;;;;;21.30;13.75;;;;;;;20.46;58.06;95228.66;4923494;29;20440;-82
2022/05/25 06:58:05;;;;;;;26.83;13.23;;;;;;;20.35;58.40;95220.25;4922598;29;20051;-82
2022/05/25 07:00:30;;;;;;;22.58;13.45;;;;;;;20.47;57.96;95218.66;4930257;29;20042;-82
2022/05/25 07:02:56;;;;;;;22.30;13.55;;;;;;;20.59;57.94;95240.25;4934193;29;20582;-82
2022/05/25 07:05:21;;;;;;;28.48;16.08;;;;;;;20.74;58.14;95264.63;4934315;29;20031;-82
2022/05/25 07:07:48;;;;;;;28.02;14.98;;;;;;;20.94;57.88;95305.31;4916172;29;20067;-82
2022/05/25 07:10:13;;;;;;;26.33;13.85;;;;;;;20.92;57.78;95289.47;4920689;29;20028;-82
2022/05/25 07:12:39;;;;;;;30.80;13.73;;;;;;;20.96;57.77;95294.97;4924328;29;20051;-82
2022/05/25 07:15:05;;;;;;;22.77;13.60;;;;;;;21.16;57.86;95331.84;4921333;29;20451;-82
2022/05/25 07:17:33;;;;;;;27.27;13.48;;;;;;;21.26;57.66;95315.25;4915288;29;20635;-82
2022/05/25 07:19:58;;;;;;;24.52;14.00;;;;;;;20.75;57.49;95241.94;4914780;29;20490;-83
2022/05/25 07:22:24;;;;;;;19.42;12.80;;;;;;;21.22;57.62;95284.66;4927692;29;20030;-82
2022/05/25 07:24:49;;;;;;;21.73;13.30;;;;;;;20.98;57.38;95277.31;4910922;29;20046;-82
2022/05/25 07:27:15;;;;;;;21.35;12.18;;;;;;;21.26;56.97;95277.47;4911782;29;20038;-82
2022/05/25 07:29:42;;;;;;;27.92;12.45;;;;;;;21.05;58.17;95274.09;4916283;29;20095;-82
2022/05/25 07:32:11;;;;;;;23.10;11.63;;;;;;;20.72;57.63;95225.66;4930264;29;20035;-81
2022/05/25 07:34:45;;;;;;;24.48;12.60;;;;;;;21.14;57.27;95275.53;4914399;29;20039;-82
2022/05/25 07:37:21;;;;;;;19.33;11.85;;;;;;;20.93;58.05;95247.91;4914472;29;20171;-83
2022/05/25 07:39:52;;;;;;;26.52;14.00;;;;;;;21.37;57.59;95329.84;4928556;29;20330;-82
2022/05/25 07:42:18;;;;;;;;;;;;;;;21.58;57.69;95313.53;4932024;29;20050;-83
2022/05/25 07:45:03;;;;;;;21.85;10.75;;;;;;;21.28;57.19;95258.28;4931095;29;19919;-81
2022/05/25 07:47:31;;;;;;;17.50;10.95;;;;;;;21.19;57.36;95231.41;4932038;29;20856;-82
2022/05/25 07:49:57;;;;;;;17.13;12.70;;;;;;;21.77;56.59;95307.53;4917215;29;20111;-82
2022/05/25 07:52:25;;;;;;;21.10;11.85;;;;;;;21.46;56.17;95237.97;4926860;29;20126;-82
2022/05/25 07:54:51;;;;;;;27.10;12.13;;;;;;;21.80;56.89;95294.16;4916841;29;20135;-82
2022/05/25 07:57:16;;;;;;;24.10;13.10;;;;;;;21.67;55.97;95251.31;4912836;29;20031;-82
2022/05/25 07:59:42;;;;;;;24.05;13.07;;;;;;;21.42;56.85;95220.91;4922164;29;20051;-83
2022/05/25 08:07:58;;;;;;;23.52;14.52;;;;;;;22.37;55.90;95297.66;4932449;29;20434;-82
2022/05/25 08:10:25;;;;;;;25.10;15.23;;;;;;;22.11;55.59;95247.59;4937410;29;20115;-82
2022/05/25 08:12:57;;;;;;;30.58;14.52;;;;;;;21.90;54.90;95195.66;4928183;29;20042;-81
2022/05/25 08:15:24;;;;;;;26.20;13.00;;;;;;;22.14;55.02;95206.38;4934180;29;20045;-82
2022/05/25 08:17:50;;;;;;;25.52;13.52;;;;;;;22.70;55.77;95298.97;4914281;29;20043;-83
2022/05/25 08:20:17;;;;;;;25.95;13.82;;;;;;;22.71;53.83;95300.53;4934039;29;20028;-83
2022/05/25 08:22:42;;;;;;;29.23;14.25;;;;;;;22.19;54.42;95208.06;4936080;29;20091;-81
2022/05/25 08:25:10;;;;;;;26.83;13.75;;;;;;;22.63;54.54;95281.78;4932888;29;20528;-82
2022/05/25 08:27:39;;;;;;;24.05;12.52;;;;;;;22.52;53.88;95246.34;4933731;28;20420;-82
2022/05/25 08:30:09;;;;;;;24.95;12.95;;;;;;;22.34;53.72;95245.13;4924184;29;20027;-82
2022/05/25 08:32:35;;;;;;;22.08;11.07;;;;;;;22.59;53.31;95257.34;4936265;29;20032;-83
2022/05/25 08:35:00;;;;;;;25.33;12.23;;;;;;;23.05;52.85;95318.00;4930387;29;20616;-82
2022/05/25 08:37:26;;;;;;;26.77;11.90;;;;;;;22.56;52.57;95230.22;4939251;28;20473;-82
2022/05/25 08:39:51;;;;;;;23.98;13.48;;;;;;;22.79;53.13;95258.28;4913323;29;20038;-82
2022/05/25 08:42:21;;;;;;;27.33;15.85;;;;;;;22.49;53.51;95225.44;4940096;28;20039;-82
2022/05/25 08:44:49;;;;;;;22.58;14.10;;;;;;;23.17;53.16;95311.75;4938877;29;20086;-82
2022/05/25 08:47:15;;;;;;;26.33;14.88;;;;;;;22.35;53.28;95202.69;4925949;29;20035;-83
2022/05/25 08:49:43;;;;;;;26.40;15.00;;;;;;;22.81;52.66;95260.63;4934752;29;20032;-82
2022/05/25 08:52:23;;;;;;;30.95;14.18;;;;;;;22.96;52.78;95273.38;4931172;29;20063;-82
2022/05/25 08:54:50;;;;;;;28.17;14.43;;;;;;;23.31;53.93;95324.81;4938962;29;20043;-82
2022/05/25 08:57:22;;;;;;;30.23;13.32;;;;;;;23.39;54.08;95324.63;4923350;29;20487;-83
2022/05/25 08:59:53;;;;;;;21.70;12.90;;;;;;;23.15;53.74;95240.16;4921768;29;20154;-82
2022/05/25 09:02:34;;;;;;;31.50;13.95;;;;;;;23.39;52.56;95283.25;4938768;29;20089;-83
2022/05/25 09:05:32;;;;;;;23.75;14.13;;;;;;;23.06;51.48;95270.91;4910439;29;20031;-82
2022/05/25 09:08:22;;;;;;;22.08;11.93;;;;;;;23.44;51.37;95313.53;4914112;29;20114;-82
2022/05/25 09:11:23;;;;;;;24.85;12.88;;;;;;;23.43;51.36;95298.44;4912822;29;20491;-82
2022/05/25 09:14:13;;;;;;;25.73;12.23;;;;;;;23.53;51.60;95301.75;4909986;29;20044;-83
2022/05/25 09:16:39;;;;;;;24.67;11.50;;;;;;;23.65;51.46;95307.06;4928965;29;20335;-83
2022/05/25 09:19:13;;;;;;;25.38;11.68;;;;;;;23.01;50.79;95200.06;4914996;29;20039;-82
2022/05/25 09:21:51;;;;;;;21.45;11.52;;;;;;;23.88;51.69;95313.34;4921453;29;20039;-82
2022/05/25 09:24:21;;;;;;;30.92;15.00;;;;;;;22.85;51.22;95173.03;4912336;29;20043;-81
2022/05/25 09:26:46;;;;;;;25.75;14.23;;;;;;;23.17;51.13;95205.44;4924762;29;20036;-81
2022/05/25 09:29:13;;;;;;;30.70;13.73;;;;;;;23.62;51.31;95251.72;4921256;29;20038;-82
2022/05/25 09:31:50;;;;;;;23.48;13.70;;;;;;;23.88;51.55;95290.94;4912664;29;20119;-82
2022/05/25 09:34:57;;;;;;;24.00;13.45;;;;;;;24.21;49.91;95323.75;4928460;29;20031;-81
2022/05/25 09:38:00;;;;;;;30.50;13.18;;;;;;;24.37;48.76;95312.84;4928923;29;20495;-81
2022/05/25 09:40:49;;;;;;;27.33;13.15;;;;;;;24.42;49.23;95321.47;4926036;29;20043;-82
2022/05/25 09:43:21;;;;;;;24.65;11.18;;;;;;;24.96;48.20;95306.97;4916517;29;20039;-81
2022/05/25 09:45:49;;;;;;;25.00;12.10;;;;;;;25.72;46.63;95305.09;4933459;29;20693;-82
2022/05/25 09:48:27;;;;;;;20.23;10.57;;;;;;;26.81;44.21;95292.06;4936510;29;20969;-81
2022/05/25 09:50:58;;;;;;;31.80;10.90;;;;;;;27.48;42.12;95291.84;4936719;29;20131;-81
2022/05/25 09:53:24;;;;;;;19.90;10.15;;;;;;;28.29;39.82;95255.34;4931101;29;20486;-82
2022/05/25 09:55:53;;;;;;;28.50;11.40;;;;;;;29.34;38.01;95294.91;4932143;29;20125;-81
2022/05/25 09:58:24;;;;;;;26.98;11.98;;;;;;;29.96;37.13;95291.75;4932654;29;20733;-82
2022/05/25 10:01:04;;;;;;;25.95;10.75;;;;;;;30.66;35.45;95268.81;4920384;29;20035;-82
2022/05/25 10:03:40;;;;;;;25.77;9.77;;;;;;;31.52;34.08;95260.72;4927584;29;20519;-82
2022/05/25 10:06:39;;;;;;;17.88;10.95;;;;;;;32.08;34.11;95269.56;4927028;29;20482;-82
2022/05/25 10:09:17;;;;;;;19.38;11.00;;;;;;;32.64;33.63;95242.63;4925926;29;20058;-82
2022/05/25 10:11:44;;;;;;;19.90;10.45;;;;;;;32.34;33.21;95216.75;4912374;29;20035;-82
2022/05/25 10:14:34;;;;;;;27.17;10.18;;;;;;;33.25;32.40;95273.53;4932861;29;20094;-82
2022/05/25 10:17:12;;;;;;;23.40;9.53;;;;;;;33.51;32.50;95225.19;4917781;29;20050;-82
2022/05/25 10:19:55;;;;;;;21.05;9.50;;;;;;;33.52;31.14;95260.50;4926965;29;20322;-82
2022/05/25 10:22:41;;;;;;;22.38;10.25;;;;;;;33.99;31.08;95265.97;4928003;29;20585;-82
2022/05/25 10:25:12;;;;;;;21.30;9.68;;;;;;;34.26;30.22;95261.13;4913735;29;20035;-81
2022/05/25 10:27:42;;;;;;;22.58;9.40;;;;;;;34.23;29.29;95274.97;4930325;29;20043;-82
2022/05/25 10:38:43;;;;;;;17.77;8.93;;;;;;;33.68;30.30;95257.84;4929733;29;20050;-83
2022/05/25 10:44:12;;;;;;;21.83;7.97;;;;;;;33.66;29.79;95209.97;4935925;29;20051;-83
2022/05/25 10:46:40;;;;;;;19.42;8.02;;;;;;;34.06;29.73;95217.06;4918630;29;20185;-82
2022/05/25 10:49:29;;;;;;;18.05;7.82;;;;;;;34.59;29.15;95228.19;4914048;29;20043;-82
2022/05/25 10:52:08;;;;;;;17.00;8.25;;;;;;;34.14;28.61;95227.94;4932069;29;20050;-82
2022/05/25 10:54:55;;;;;;;19.02;8.20;;;;;;;33.97;29.13;95183.84;4931655;29;20040;-83
2022/05/25 10:57:51;;;;;;;20.52;7.22;;;;;;;33.88;28.08;95172.63;4911146;29;20514;-82
2022/05/25 11:00:58;;;;;;;22.00;8.73;;;;;;;34.90;29.00;95221.19;4924616;29;20036;-84
2022/05/25 11:03:58;;;;;;;23.20;9.18;;;;;;;34.88;29.32;95222.81;4890059;29;20043;-83
2022/05/25 11:06:42;;;;;;;22.45;8.93;;;;;;;35.08;28.11;95221.56;4867530;29;20045;-82
2022/05/25 11:09:30;;;;;;;26.48;7.57;;;;;;;34.90;25.54;95206.63;4911125;29;20031;-83
2022/05/25 11:12:07;;;;;;;21.08;7.05;;;;;;;34.65;26.61;95209.94;4916849;29;20090;-83
2022/05/25 11:14:52;;;;;;;17.95;7.53;;;;;;;34.88;26.06;95201.56;4931265;29;20063;-83
2022/05/25 11:17:41;;;;;;;20.80;7.47;;;;;;;34.60;26.39;95200.22;4924405;29;20039;-83
2022/05/25 11:20:34;;;;;;;24.63;7.55;;;;;;;34.40;26.05;95196.75;4926353;29;20032;-82
2022/05/25 11:23:27;;;;;;;19.65;8.35;;;;;;;35.06;28.87;95199.16;4910962;29;20035;-82
2022/05/25 11:25:59;;;;;;;25.45;9.15;;;;;;;35.39;28.83;95205.44;4901837;29;20043;-83
2022/05/25 11:28:43;;;;;;;18.65;7.40;;;;;;;35.24;26.25;95193.25;4931635;29;20042;-82
2022/05/25 11:31:44;;;;;;;21.58;7.05;;;;;;;34.94;25.80;95185.31;4935797;29;20256;-82
2022/05/25 11:35:04;;;;;;;24.08;7.75;;;;;;;35.28;25.44;95198.66;4903659;29;20057;-82
2022/05/25 11:37:35;;;;;;;19.73;6.83;;;;;;;35.41;24.21;95189.22;4853430;29;20132;-82
2022/05/25 11:40:17;;;;;;;26.38;6.32;;;;;;;35.76;24.14;95189.53;4843404;29;20052;-82
2022/05/25 11:42:55;;;;;;;15.45;5.50;;;;;;;35.98;23.47;95190.47;4892054;29;20047;-82
2022/05/25 11:45:37;;;;;;;16.17;4.85;;;;;;;35.75;22.88;95133.56;4929251;29;20604;-81
2022/05/25 11:48:11;;;;;;;15.60;6.53;;;;;;;35.93;21.86;95166.19;4934466;29;20034;-82
2022/05/25 11:50:54;;;;;;;21.42;5.70;;;;;;;35.81;22.49;95180.72;4910084;29;20024;-82
2022/05/25 11:54:10;;;;;;;18.50;5.78;;;;;;;35.37;22.22;95146.44;4917696;29;20137;-83
2022/05/25 11:57:04;;;;;;;19.85;5.70;;;;;;;35.74;22.36;95170.66;4887141;29;20149;-82
2022/05/25 11:59:53;;;;;;;16.52;5.60;;;;;;;35.89;23.04;95155.25;4928121;29;20182;-82
2022/05/25 12:03:11;;;;;;;15.57;5.80;;;;;;;35.96;22.81;95115.63;4931053;29;20039;-82
2022/05/25 12:06:18;;;;;;;19.02;5.65;;;;;;;36.02;22.03;95124.91;4874239;29;20493;-82
2022/05/25 12:09:21;;;;;;;14.93;5.28;;;;;;;36.52;23.14;95148.28;4895126;29;20057;-82
2022/05/25 12:11:53;;;;;;;21.98;5.85;;;;;;;36.27;22.03;95102.88;4925274;29;20035;-82
2022/05/25 12:14:36;;;;;;;16.45;5.63;;;;;;;36.65;22.52;95144.28;4912271;29;20616;-83
2022/05/25 12:17:10;;;;;;;30.65;6.47;;;;;;;36.58;22.07;95149.25;4913687;29;20035;-82